sensor_id;sensor_type;location;lat;lon;timestamp;P1;durP1;ratioP1;P2;durP2;ratioP2
31618;SDS011;18230;51.502;7.108;2023-05-10T00:03:57;11.98;;;9.35;;
31618;SDS011;18230;51.502;7.108;2023-05-10T00:08:58;9.38;;;7.70;;
31618;SDS011;18230;51.502;7.108;2023-05-10T00:13:59;13.70;;;8.55;;
31618;SDS011;18230;51.502;7.108;2023-05-10T00:18:59;12.60;;;9.65;;
31618;SDS011;18230;51.502;7.108;2023-05-10T00:24:00;13.00;;;9.93;;
31618;SDS011;18230;51.502;7.108;2023-05-10T00:29:01;14.50;;;11.13;;
31618;SDS011;18230;51.502;7.108;2023-05-10T00:34:02;16.70;;;12.52;;
31618;SDS011;18230;51.502;7.108;2023-05-10T00:39:03;17.30;;;12.48;;
31618;SDS011;18230;51.502;7.108;2023-05-10T00:44:04;19.52;;;13.73;;
31618;SDS011;18230;51.502;7.108;2023-05-10T00:49:05;18.15;;;13.95;;
31618;SDS011;18230;51.502;7.108;2023-05-10T00:54:06;17.40;;;13.20;;
31618;SDS011;18230;51.502;7.108;2023-05-10T00:59:10;16.58;;;12.77;;
31618;SDS011;18230;51.502;7.108;2023-05-10T01:04:11;16.05;;;11.40;;
31618;SDS011;18230;51.502;7.108;2023-05-10T01:09:13;15.65;;;10.77;;
31618;SDS011;18230;51.502;7.108;2023-05-10T01:14:14;15.20;;;10.90;;
31618;SDS011;18230;51.502;7.108;2023-05-10T01:19:36;12.35;;;9.65;;
31618;SDS011;18230;51.502;7.108;2023-05-10T01:50:58;14.25;;;11.07;;
31618;SDS011;18230;51.502;7.108;2023-05-10T01:55:59;13.30;;;10.48;;
31618;SDS011;18230;51.502;7.108;2023-05-10T02:01:03;12.15;;;9.43;;
31618;SDS011;18230;51.502;7.108;2023-05-10T02:06:06;14.30;;;10.80;;
31618;SDS011;18230;51.502;7.108;2023-05-10T02:11:08;14.55;;;10.70;;
31618;SDS011;18230;51.502;7.108;2023-05-10T02:16:12;16.92;;;10.30;;
31618;SDS011;18230;51.502;7.108;2023-05-10T02:21:14;17.33;;;11.07;;
31618;SDS011;18230;51.502;7.108;2023-05-10T02:26:17;17.13;;;12.27;;
31618;SDS011;18230;51.502;7.108;2023-05-10T02:31:21;18.23;;;12.75;;
31618;SDS011;18230;51.502;7.108;2023-05-10T02:36:22;20.15;;;13.25;;
31618;SDS011;18230;51.502;7.108;2023-05-10T02:41:24;22.58;;;13.45;;
31618;SDS011;18230;51.502;7.108;2023-05-10T02:46:27;19.45;;;13.75;;
31618;SDS011;18230;51.502;7.108;2023-05-10T02:51:28;19.95;;;13.02;;
31618;SDS011;18230;51.502;7.108;2023-05-10T02:56:33;23.85;;;15.32;;
31618;SDS011;18230;51.502;7.108;2023-05-10T03:01:36;20.52;;;12.15;;
31618;SDS011;18230;51.502;7.108;2023-05-10T03:06:37;22.13;;;14.25;;
31618;SDS011;18230;51.502;7.108;2023-05-10T03:11:49;22.38;;;14.32;;
31618;SDS011;18230;51.502;7.108;2023-05-10T03:22:31;21.48;;;14.07;;
31618;SDS011;18230;51.502;7.108;2023-05-10T03:27:37;22.48;;;13.45;;
31618;SDS011;18230;51.502;7.108;2023-05-10T03:32:41;28.58;;;15.77;;
31618;SDS011;18230;51.502;7.108;2023-05-10T03:37:41;25.25;;;14.82;;
31618;SDS011;18230;51.502;7.108;2023-05-10T03:42:42;31.08;;;16.02;;
31618;SDS011;18230;51.502;7.108;2023-05-10T03:47:43;24.63;;;15.38;;
31618;SDS011;18230;51.502;7.108;2023-05-10T03:52:43;34.13;;;17.35;;
31618;SDS011;18230;51.502;7.108;2023-05-10T03:57:44;26.70;;;16.52;;
31618;SDS011;18230;51.502;7.108;2023-05-10T04:02:45;33.15;;;19.35;;
31618;SDS011;18230;51.502;7.108;2023-05-10T04:07:46;27.50;;;17.25;;
31618;SDS011;18230;51.502;7.108;2023-05-10T04:12:49;30.80;;;18.63;;
31618;SDS011;18230;51.502;7.108;2023-05-10T04:17:50;34.22;;;19.40;;
31618;SDS011;18230;51.502;7.108;2023-05-10T04:22:51;35.67;;;22.00;;
31618;SDS011;18230;51.502;7.108;2023-05-10T04:27:51;42.55;;;25.33;;
31618;SDS011;18230;51.502;7.108;2023-05-10T04:32:52;44.15;;;26.85;;
31618;SDS011;18230;51.502;7.108;2023-05-10T04:37:53;50.05;;;28.20;;
31618;SDS011;18230;51.502;7.108;2023-05-10T04:42:54;55.20;;;31.23;;
31618;SDS011;18230;51.502;7.108;2023-05-10T04:47:55;56.38;;;31.88;;
31618;SDS011;18230;51.502;7.108;2023-05-10T04:52:56;50.15;;;30.08;;
31618;SDS011;18230;51.502;7.108;2023-05-10T04:57:57;54.53;;;30.55;;
31618;SDS011;18230;51.502;7.108;2023-05-10T05:02:59;61.13;;;33.28;;
31618;SDS011;18230;51.502;7.108;2023-05-10T05:07:59;61.25;;;32.47;;
31618;SDS011;18230;51.502;7.108;2023-05-10T05:13:00;57.30;;;33.20;;
31618;SDS011;18230;51.502;7.108;2023-05-10T05:18:01;62.03;;;34.58;;
31618;SDS011;18230;51.502;7.108;2023-05-10T05:23:02;67.00;;;35.40;;
31618;SDS011;18230;51.502;7.108;2023-05-10T05:28:03;63.75;;;35.20;;
31618;SDS011;18230;51.502;7.108;2023-05-10T05:33:04;66.13;;;36.83;;
31618;SDS011;18230;51.502;7.108;2023-05-10T05:38:04;67.05;;;38.90;;
31618;SDS011;18230;51.502;7.108;2023-05-10T05:43:06;70.40;;;38.80;;
31618;SDS011;18230;51.502;7.108;2023-05-10T05:48:06;70.13;;;39.22;;
31618;SDS011;18230;51.502;7.108;2023-05-10T05:53:07;62.13;;;38.38;;
31618;SDS011;18230;51.502;7.108;2023-05-10T05:58:09;66.05;;;37.53;;
31618;SDS011;18230;51.502;7.108;2023-05-10T06:03:09;62.15;;;39.15;;
31618;SDS011;18230;51.502;7.108;2023-05-10T06:08:10;67.22;;;37.70;;
31618;SDS011;18230;51.502;7.108;2023-05-10T06:13:11;65.82;;;39.95;;
31618;SDS011;18230;51.502;7.108;2023-05-10T06:18:12;69.03;;;39.58;;
31618;SDS011;18230;51.502;7.108;2023-05-10T06:23:12;60.40;;;36.75;;
31618;SDS011;18230;51.502;7.108;2023-05-10T06:28:13;62.78;;;38.53;;
31618;SDS011;18230;51.502;7.108;2023-05-10T06:33:14;66.53;;;38.40;;
31618;SDS011;18230;51.502;7.108;2023-05-10T06:38:16;60.40;;;38.13;;
31618;SDS011;18230;51.502;7.108;2023-05-10T06:43:16;65.00;;;36.40;;
31618;SDS011;18230;51.502;7.108;2023-05-10T06:48:17;53.15;;;31.27;;
31618;SDS011;18230;51.502;7.108;2023-05-10T06:53:18;60.50;;;33.13;;
31618;SDS011;18230;51.502;7.108;2023-05-10T06:58:19;61.83;;;33.20;;
31618;SDS011;18230;51.502;7.108;2023-05-10T07:03:19;63.40;;;34.00;;
31618;SDS011;18230;51.502;7.108;2023-05-10T07:08:20;56.78;;;32.65;;
31618;SDS011;18230;51.502;7.108;2023-05-10T07:13:21;60.30;;;32.78;;
31618;SDS011;18230;51.502;7.108;2023-05-10T07:18:22;53.00;;;31.77;;
31618;SDS011;18230;51.502;7.108;2023-05-10T07:23:22;57.85;;;33.20;;
31618;SDS011;18230;51.502;7.108;2023-05-10T07:28:23;56.80;;;33.47;;
31618;SDS011;18230;51.502;7.108;2023-05-10T07:33:24;55.88;;;34.25;;
31618;SDS011;18230;51.502;7.108;2023-05-10T07:38:25;53.65;;;31.98;;
31618;SDS011;18230;51.502;7.108;2023-05-10T07:43:25;53.58;;;31.88;;
31618;SDS011;18230;51.502;7.108;2023-05-10T07:48:26;55.63;;;33.17;;
31618;SDS011;18230;51.502;7.108;2023-05-10T07:53:27;53.17;;;30.80;;
31618;SDS011;18230;51.502;7.108;2023-05-10T07:58:28;55.25;;;29.70;;
31618;SDS011;18230;51.502;7.108;2023-05-10T08:03:28;55.78;;;30.48;;
31618;SDS011;18230;51.502;7.108;2023-05-10T08:08:29;63.92;;;32.97;;
31618;SDS011;18230;51.502;7.108;2023-05-10T08:13:30;57.55;;;30.40;;
31618;SDS011;18230;51.502;7.108;2023-05-10T08:18:31;56.80;;;32.38;;
31618;SDS011;18230;51.502;7.108;2023-05-10T08:23:32;57.47;;;30.90;;
31618;SDS011;18230;51.502;7.108;2023-05-10T08:28:33;51.30;;;28.73;;
31618;SDS011;18230;51.502;7.108;2023-05-10T08:33:33;45.30;;;24.60;;
31618;SDS011;18230;51.502;7.108;2023-05-10T08:38:34;41.35;;;22.90;;
31618;SDS011;18230;51.502;7.108;2023-05-10T08:43:35;39.38;;;21.42;;
31618;SDS011;18230;51.502;7.108;2023-05-10T08:48:36;38.10;;;20.95;;
31618;SDS011;18230;51.502;7.108;2023-05-10T08:53:37;36.30;;;20.35;;
31618;SDS011;18230;51.502;7.108;2023-05-10T08:58:39;37.15;;;21.17;;
31618;SDS011;18230;51.502;7.108;2023-05-10T09:03:40;32.97;;;21.42;;
31618;SDS011;18230;51.502;7.108;2023-05-10T09:08:41;42.55;;;24.63;;
31618;SDS011;18230;51.502;7.108;2023-05-10T09:13:43;40.45;;;23.80;;
31618;SDS011;18230;51.502;7.108;2023-05-10T09:18:44;46.13;;;27.27;;
31618;SDS011;18230;51.502;7.108;2023-05-10T09:23:45;43.90;;;27.65;;
31618;SDS011;18230;51.502;7.108;2023-05-10T09:28:57;39.78;;;27.35;;
31618;SDS011;18230;51.502;7.108;2023-05-10T09:33:59;38.55;;;23.25;;
31618;SDS011;18230;51.502;7.108;2023-05-10T09:38:59;37.92;;;21.98;;
31618;SDS011;18230;51.502;7.108;2023-05-10T09:44:00;37.50;;;23.88;;
31618;SDS011;18230;51.502;7.108;2023-05-10T09:49:01;42.20;;;26.02;;
31618;SDS011;18230;51.502;7.108;2023-05-10T09:54:15;44.22;;;27.52;;
31618;SDS011;18230;51.502;7.108;2023-05-10T09:59:16;49.10;;;28.45;;
31618;SDS011;18230;51.502;7.108;2023-05-10T10:04:18;62.05;;;37.65;;
31618;SDS011;18230;51.502;7.108;2023-05-10T10:09:21;58.28;;;36.03;;
31618;SDS011;18230;51.502;7.108;2023-05-10T10:14:22;54.17;;;35.67;;
31618;SDS011;18230;51.502;7.108;2023-05-10T10:19:24;52.17;;;31.90;;
31618;SDS011;18230;51.502;7.108;2023-05-10T10:24:26;42.08;;;27.00;;
31618;SDS011;18230;51.502;7.108;2023-05-10T10:34:43;34.73;;;22.50;;
31618;SDS011;18230;51.502;7.108;2023-05-10T10:39:47;29.92;;;19.25;;
31618;SDS011;18230;51.502;7.108;2023-05-10T10:45:11;29.75;;;18.35;;
31618;SDS011;18230;51.502;7.108;2023-05-10T10:50:19;35.03;;;18.85;;
31618;SDS011;18230;51.502;7.108;2023-05-10T10:55:20;34.15;;;19.15;;
31618;SDS011;18230;51.502;7.108;2023-05-10T11:00:33;32.20;;;21.25;;
31618;SDS011;18230;51.502;7.108;2023-05-10T11:05:43;34.22;;;23.40;;
31618;SDS011;18230;51.502;7.108;2023-05-10T11:10:51;33.38;;;21.70;;
31618;SDS011;18230;51.502;7.108;2023-05-10T11:15:58;29.95;;;18.95;;
31618;SDS011;18230;51.502;7.108;2023-05-10T11:21:20;33.97;;;17.35;;
31618;SDS011;18230;51.502;7.108;2023-05-10T11:26:21;35.70;;;18.13;;
31618;SDS011;18230;51.502;7.108;2023-05-10T11:31:30;30.42;;;19.20;;
31618;SDS011;18230;51.502;7.108;2023-05-10T11:36:34;28.65;;;17.15;;
31618;SDS011;18230;51.502;7.108;2023-05-10T11:41:36;22.42;;;14.20;;
31618;SDS011;18230;51.502;7.108;2023-05-10T11:46:37;28.65;;;14.88;;
31618;SDS011;18230;51.502;7.108;2023-05-10T11:51:37;31.38;;;18.05;;
31618;SDS011;18230;51.502;7.108;2023-05-10T11:56:39;25.35;;;16.20;;
31618;SDS011;18230;51.502;7.108;2023-05-10T12:01:41;23.45;;;15.23;;
31618;SDS011;18230;51.502;7.108;2023-05-10T12:06:42;22.20;;;16.02;;
31618;SDS011;18230;51.502;7.108;2023-05-10T12:11:43;27.75;;;16.02;;
31618;SDS011;18230;51.502;7.108;2023-05-10T12:16:43;25.27;;;16.75;;
31618;SDS011;18230;51.502;7.108;2023-05-10T12:21:44;24.67;;;16.77;;
31618;SDS011;18230;51.502;7.108;2023-05-10T12:26:45;24.98;;;15.27;;
31618;SDS011;18230;51.502;7.108;2023-05-10T12:31:50;26.60;;;15.20;;
31618;SDS011;18230;51.502;7.108;2023-05-10T12:36:58;27.95;;;14.80;;
31618;SDS011;18230;51.502;7.108;2023-05-10T12:42:00;21.52;;;14.48;;
31618;SDS011;18230;51.502;7.108;2023-05-10T12:47:00;28.67;;;17.67;;
31618;SDS011;18230;51.502;7.108;2023-05-10T12:52:01;22.77;;;14.52;;
31618;SDS011;18230;51.502;7.108;2023-05-10T12:57:02;19.92;;;14.05;;
31618;SDS011;18230;51.502;7.108;2023-05-10T13:02:03;20.42;;;12.02;;
31618;SDS011;18230;51.502;7.108;2023-05-10T13:07:04;12.63;;;8.20;;
31618;SDS011;18230;51.502;7.108;2023-05-10T13:12:05;11.57;;;7.32;;
31618;SDS011;18230;51.502;7.108;2023-05-10T13:17:09;17.83;;;6.40;;
31618;SDS011;18230;51.502;7.108;2023-05-10T13:22:10;8.82;;;6.00;;
31618;SDS011;18230;51.502;7.108;2023-05-10T13:27:11;13.07;;;5.88;;
31618;SDS011;18230;51.502;7.108;2023-05-10T13:32:12;11.57;;;6.32;;
31618;SDS011;18230;51.502;7.108;2023-05-10T13:37:13;10.90;;;6.30;;
31618;SDS011;18230;51.502;7.108;2023-05-10T13:42:13;8.70;;;5.40;;
31618;SDS011;18230;51.502;7.108;2023-05-10T13:47:14;11.38;;;5.03;;
31618;SDS011;18230;51.502;7.108;2023-05-10T13:52:15;8.23;;;4.30;;
31618;SDS011;18230;51.502;7.108;2023-05-10T13:57:16;10.05;;;4.68;;
31618;SDS011;18230;51.502;7.108;2023-05-10T14:02:16;6.65;;;4.28;;
31618;SDS011;18230;51.502;7.108;2023-05-10T14:07:20;8.73;;;4.90;;
31618;SDS011;18230;51.502;7.108;2023-05-10T14:12:20;8.43;;;4.78;;
31618;SDS011;18230;51.502;7.108;2023-05-10T14:17:21;8.30;;;4.78;;
31618;SDS011;18230;51.502;7.108;2023-05-10T14:22:22;8.50;;;4.63;;
31618;SDS011;18230;51.502;7.108;2023-05-10T14:27:23;6.85;;;4.40;;
31618;SDS011;18230;51.502;7.108;2023-05-10T14:32:24;7.93;;;4.28;;
31618;SDS011;18230;51.502;7.108;2023-05-10T14:37:26;9.00;;;4.60;;
31618;SDS011;18230;51.502;7.108;2023-05-10T14:42:27;7.78;;;4.88;;
31618;SDS011;18230;51.502;7.108;2023-05-10T14:47:28;11.13;;;5.85;;
31618;SDS011;18230;51.502;7.108;2023-05-10T14:52:29;8.70;;;5.55;;
31618;SDS011;18230;51.502;7.108;2023-05-10T14:57:30;13.52;;;6.32;;
31618;SDS011;18230;51.502;7.108;2023-05-10T15:02:30;11.90;;;5.90;;
31618;SDS011;18230;51.502;7.108;2023-05-10T15:07:31;13.23;;;5.97;;
31618;SDS011;18230;51.502;7.108;2023-05-10T15:12:32;10.02;;;5.07;;
31618;SDS011;18230;51.502;7.108;2023-05-10T15:17:33;10.35;;;5.35;;
31618;SDS011;18230;51.502;7.108;2023-05-10T15:22:35;9.80;;;5.85;;
31618;SDS011;18230;51.502;7.108;2023-05-10T15:27:35;9.82;;;6.00;;
31618;SDS011;18230;51.502;7.108;2023-05-10T15:32:36;11.82;;;6.47;;
31618;SDS011;18230;51.502;7.108;2023-05-10T15:37:42;8.60;;;6.07;;
31618;SDS011;18230;51.502;7.108;2023-05-10T15:42:58;11.68;;;6.40;;
31618;SDS011;18230;51.502;7.108;2023-05-10T15:47:58;9.27;;;6.50;;
31618;SDS011;18230;51.502;7.108;2023-05-10T15:53:02;9.57;;;6.43;;
31618;SDS011;18230;51.502;7.108;2023-05-10T15:58:09;10.48;;;6.90;;
31618;SDS011;18230;51.502;7.108;2023-05-10T16:03:13;12.55;;;7.28;;
31618;SDS011;18230;51.502;7.108;2023-05-10T16:08:14;12.43;;;7.28;;
31618;SDS011;18230;51.502;7.108;2023-05-10T16:13:15;12.40;;;9.20;;
31618;SDS011;18230;51.502;7.108;2023-05-10T16:18:26;11.73;;;8.00;;
31618;SDS011;18230;51.502;7.108;2023-05-10T16:23:27;10.98;;;7.63;;
31618;SDS011;18230;51.502;7.108;2023-05-10T16:28:37;15.95;;;9.18;;
31618;SDS011;18230;51.502;7.108;2023-05-10T16:38:44;16.85;;;11.05;;
31618;SDS011;18230;51.502;7.108;2023-05-10T16:43:45;18.02;;;11.05;;
31618;SDS011;18230;51.502;7.108;2023-05-10T16:48:46;17.50;;;13.52;;
31618;SDS011;18230;51.502;7.108;2023-05-10T16:53:47;19.58;;;12.52;;
31618;SDS011;18230;51.502;7.108;2023-05-10T16:58:48;22.20;;;14.13;;
31618;SDS011;18230;51.502;7.108;2023-05-10T17:03:59;19.65;;;15.25;;
31618;SDS011;18230;51.502;7.108;2023-05-10T17:09:00;21.88;;;13.75;;
31618;SDS011;18230;51.502;7.108;2023-05-10T17:14:10;20.40;;;14.00;;
31618;SDS011;18230;51.502;7.108;2023-05-10T17:19:13;20.58;;;12.32;;
31618;SDS011;18230;51.502;7.108;2023-05-10T17:24:14;16.50;;;10.40;;
31618;SDS011;18230;51.502;7.108;2023-05-10T17:29:15;14.93;;;10.70;;
31618;SDS011;18230;51.502;7.108;2023-05-10T17:34:15;11.50;;;8.95;;
31618;SDS011;18230;51.502;7.108;2023-05-10T17:39:16;12.00;;;8.02;;
31618;SDS011;18230;51.502;7.108;2023-05-10T17:44:17;11.32;;;7.97;;
31618;SDS011;18230;51.502;7.108;2023-05-10T17:49:18;12.07;;;8.82;;
31618;SDS011;18230;51.502;7.108;2023-05-10T17:54:19;15.68;;;8.75;;
31618;SDS011;18230;51.502;7.108;2023-05-10T17:59:19;9.50;;;6.80;;
31618;SDS011;18230;51.502;7.108;2023-05-10T18:04:20;9.38;;;6.78;;
31618;SDS011;18230;51.502;7.108;2023-05-10T18:09:21;9.90;;;6.60;;
31618;SDS011;18230;51.502;7.108;2023-05-10T18:14:23;11.73;;;6.97;;
31618;SDS011;18230;51.502;7.108;2023-05-10T18:19:27;9.13;;;6.57;;
31618;SDS011;18230;51.502;7.108;2023-05-10T18:24:30;8.32;;;6.15;;
31618;SDS011;18230;51.502;7.108;2023-05-10T18:29:44;6.97;;;5.70;;
31618;SDS011;18230;51.502;7.108;2023-05-10T18:34:45;9.40;;;6.45;;
31618;SDS011;18230;51.502;7.108;2023-05-10T18:39:46;8.48;;;5.97;;
31618;SDS011;18230;51.502;7.108;2023-05-10T18:44:47;10.05;;;6.40;;
31618;SDS011;18230;51.502;7.108;2023-05-10T18:49:47;10.18;;;6.13;;
31618;SDS011;18230;51.502;7.108;2023-05-10T18:54:51;6.35;;;4.85;;
31618;SDS011;18230;51.502;7.108;2023-05-10T19:00:11;7.85;;;4.70;;
31618;SDS011;18230;51.502;7.108;2023-05-10T19:05:12;5.68;;;4.40;;
31618;SDS011;18230;51.502;7.108;2023-05-10T19:10:14;8.55;;;4.38;;
31618;SDS011;18230;51.502;7.108;2023-05-10T19:15:14;8.82;;;4.40;;
31618;SDS011;18230;51.502;7.108;2023-05-10T19:20:15;7.28;;;4.57;;
31618;SDS011;18230;51.502;7.108;2023-05-10T19:25:16;6.88;;;4.35;;
31618;SDS011;18230;51.502;7.108;2023-05-10T19:30:18;10.23;;;4.35;;
31618;SDS011;18230;51.502;7.108;2023-05-10T19:35:19;7.43;;;4.78;;
31618;SDS011;18230;51.502;7.108;2023-05-10T19:40:20;8.25;;;5.03;;
31618;SDS011;18230;51.502;7.108;2023-05-10T19:45:20;11.25;;;6.10;;
31618;SDS011;18230;51.502;7.108;2023-05-10T19:50:21;16.88;;;8.65;;
31618;SDS011;18230;51.502;7.108;2023-05-10T19:55:26;12.85;;;7.63;;
31618;SDS011;18230;51.502;7.108;2023-05-10T20:00:28;25.13;;;16.50;;
31618;SDS011;18230;51.502;7.108;2023-05-10T20:05:29;15.63;;;10.77;;
31618;SDS011;18230;51.502;7.108;2023-05-10T20:10:30;23.90;;;15.98;;
31618;SDS011;18230;51.502;7.108;2023-05-10T20:15:30;16.73;;;10.55;;
31618;SDS011;18230;51.502;7.108;2023-05-10T20:20:31;13.18;;;7.85;;
31618;SDS011;18230;51.502;7.108;2023-05-10T20:25:32;9.80;;;6.82;;
31618;SDS011;18230;51.502;7.108;2023-05-10T20:30:33;17.50;;;9.45;;
31618;SDS011;18230;51.502;7.108;2023-05-10T20:35:34;14.95;;;8.73;;
31618;SDS011;18230;51.502;7.108;2023-05-10T20:40:37;12.35;;;7.85;;
31618;SDS011;18230;51.502;7.108;2023-05-10T20:45:38;20.65;;;9.48;;
31618;SDS011;18230;51.502;7.108;2023-05-10T20:50:39;19.17;;;12.55;;
31618;SDS011;18230;51.502;7.108;2023-05-10T20:55:40;17.80;;;11.40;;
31618;SDS011;18230;51.502;7.108;2023-05-10T21:00:41;18.35;;;11.30;;
31618;SDS011;18230;51.502;7.108;2023-05-10T21:05:42;18.73;;;11.52;;
31618;SDS011;18230;51.502;7.108;2023-05-10T21:10:42;20.95;;;13.05;;
31618;SDS011;18230;51.502;7.108;2023-05-10T21:15:44;20.90;;;13.57;;
31618;SDS011;18230;51.502;7.108;2023-05-10T21:20:45;26.92;;;15.38;;
31618;SDS011;18230;51.502;7.108;2023-05-10T21:25:46;21.40;;;14.38;;
31618;SDS011;18230;51.502;7.108;2023-05-10T21:30:47;19.10;;;14.32;;
31618;SDS011;18230;51.502;7.108;2023-05-10T21:35:48;23.58;;;15.88;;
31618;SDS011;18230;51.502;7.108;2023-05-10T21:40:49;23.42;;;15.13;;
31618;SDS011;18230;51.502;7.108;2023-05-10T21:45:49;24.55;;;16.65;;
31618;SDS011;18230;51.502;7.108;2023-05-10T21:50:50;23.80;;;15.73;;
31618;SDS011;18230;51.502;7.108;2023-05-10T21:55:51;22.48;;;14.75;;
31618;SDS011;18230;51.502;7.108;2023-05-10T22:00:54;22.02;;;14.30;;
31618;SDS011;18230;51.502;7.108;2023-05-10T22:05:55;22.73;;;16.17;;
31618;SDS011;18230;51.502;7.108;2023-05-10T22:10:55;24.63;;;16.13;;
31618;SDS011;18230;51.502;7.108;2023-05-10T22:15:56;22.80;;;16.05;;
31618;SDS011;18230;51.502;7.108;2023-05-10T22:20:57;22.50;;;16.50;;
31618;SDS011;18230;51.502;7.108;2023-05-10T22:25:59;22.00;;;14.40;;
31618;SDS011;18230;51.502;7.108;2023-05-10T22:31:00;26.27;;;16.23;;
31618;SDS011;18230;51.502;7.108;2023-05-10T22:36:01;24.50;;;16.65;;
31618;SDS011;18230;51.502;7.108;2023-05-10T22:41:02;25.60;;;16.02;;
31618;SDS011;18230;51.502;7.108;2023-05-10T22:46:03;27.08;;;17.42;;
31618;SDS011;18230;51.502;7.108;2023-05-10T22:51:04;30.90;;;18.80;;
31618;SDS011;18230;51.502;7.108;2023-05-10T22:56:05;28.08;;;18.20;;
31618;SDS011;18230;51.502;7.108;2023-05-10T23:01:06;32.97;;;19.77;;
31618;SDS011;18230;51.502;7.108;2023-05-10T23:06:12;33.50;;;22.02;;
31618;SDS011;18230;51.502;7.108;2023-05-10T23:11:13;32.13;;;20.52;;
31618;SDS011;18230;51.502;7.108;2023-05-10T23:16:14;34.97;;;21.38;;
31618;SDS011;18230;51.502;7.108;2023-05-10T23:21:15;35.55;;;23.23;;
31618;SDS011;18230;51.502;7.108;2023-05-10T23:26:16;36.90;;;22.52;;
31618;SDS011;18230;51.502;7.108;2023-05-10T23:31:17;36.03;;;24.30;;
31618;SDS011;18230;51.502;7.108;2023-05-10T23:36:17;34.33;;;23.20;;
31618;SDS011;18230;51.502;7.108;2023-05-10T23:41:18;28.88;;;20.60;;
31618;SDS011;18230;51.502;7.108;2023-05-10T23:46:19;33.08;;;24.08;;
31618;SDS011;18230;51.502;7.108;2023-05-10T23:51:20;38.97;;;25.80;;
31618;SDS011;18230;51.502;7.108;2023-05-10T23:56:23;35.53;;;23.98;;
